createdAt,value
2023-02-17T00:00:57.081Z,200.63
2023-02-17T00:03:26.087Z,202.47
2023-02-17T00:05:54.385Z,203.87
2023-02-17T00:08:22.461Z,213.10
2023-02-17T00:10:59.016Z,210.17
2023-02-17T00:13:27.126Z,205.10
2023-02-17T00:15:55.232Z,203.57
2023-02-17T00:18:23.923Z,203.80
2023-02-17T00:20:52.285Z,211.43
2023-02-17T00:23:20.287Z,202.40
2023-02-17T00:25:48.236Z,192.17
2023-02-17T00:28:17.576Z,180.97
2023-02-17T00:30:45.508Z,201.73
2023-02-17T00:33:13.475Z,212.70
2023-02-17T00:35:42.598Z,205.60
2023-02-17T00:38:10.571Z,200.20
2023-02-17T00:40:38.893Z,198.47
2023-02-17T00:43:07.118Z,205.13
2023-02-17T00:45:36.459Z,221.90
2023-02-17T00:48:04.540Z,218.53
2023-02-17T00:50:32.597Z,220.33
2023-02-17T00:53:00.762Z,209.10
2023-02-17T00:55:28.767Z,208.40
2023-02-17T00:57:56.712Z,183.77
2023-02-17T01:00:24.921Z,179.20
2023-02-17T01:02:54.264Z,176.57
2023-02-17T01:05:22.287Z,183.50
2023-02-17T01:07:50.369Z,181.60
2023-02-17T01:10:18.679Z,170.90
2023-02-17T01:12:46.698Z,184.43
2023-02-17T01:15:14.880Z,120.13
2023-02-17T01:17:42.881Z,139.07
2023-02-17T01:20:12.616Z,107.70
2023-02-17T01:22:40.797Z,128.50
2023-02-17T01:25:09.205Z,120.57
2023-02-17T01:27:37.587Z,175.73
2023-02-17T01:30:06.567Z,168.60
2023-02-17T01:32:34.607Z,167.07
2023-02-17T01:35:02.595Z,170.47
2023-02-17T01:37:33.394Z,159.07
2023-02-17T01:40:01.746Z,130.23
2023-02-17T01:42:29.849Z,113.03
2023-02-17T01:45:31.227Z,121.37
2023-02-17T01:48:03.994Z,131.10
2023-02-17T01:50:35.615Z,116.17
2023-02-17T01:53:08.582Z,109.83
2023-02-17T01:55:38.640Z,115.00
2023-02-17T01:58:09.070Z,102.03
2023-02-17T02:00:37.896Z,132.50
2023-02-17T02:03:09.616Z,144.83
2023-02-17T02:05:39.774Z,141.77
2023-02-17T02:08:10.126Z,131.43
2023-02-17T02:10:38.238Z,132.17
2023-02-17T02:13:06.977Z,118.23
2023-02-17T02:15:43.094Z,119.90
2023-02-17T02:18:32.477Z,116.03
2023-02-17T02:21:33.196Z,120.37
2023-02-17T02:24:14.256Z,117.93
2023-02-17T02:27:10.008Z,101.87
2023-02-17T02:29:58.113Z,112.20
2023-02-17T02:32:41.299Z,107.67
2023-02-17T02:35:12.937Z,125.47
2023-02-17T02:37:47.011Z,117.77
2023-02-17T02:40:17.927Z,105.63
2023-02-17T02:42:47.049Z,119.80
2023-02-17T02:45:15.056Z,125.30
2023-02-17T02:47:49.818Z,120.00
2023-02-17T02:50:20.995Z,125.10
2023-02-17T02:53:14.715Z,126.90
2023-02-17T02:55:52.174Z,107.90
2023-02-17T02:58:23.333Z,105.47
2023-02-17T03:00:58.487Z,108.60
2023-02-17T03:03:35.286Z,105.07
2023-02-17T03:06:09.288Z,112.53
2023-02-17T03:08:41.507Z,121.83
2023-02-17T03:11:09.496Z,120.93
2023-02-17T03:13:43.137Z,115.07
2023-02-17T03:16:12.934Z,114.43
2023-02-17T03:18:42.296Z,110.50
2023-02-17T03:21:17.347Z,114.47
2023-02-17T03:23:45.409Z,120.90
2023-02-17T03:26:13.400Z,116.87
2023-02-17T03:28:41.418Z,115.13
2023-02-17T03:31:09.448Z,122.97
2023-02-17T03:33:37.442Z,122.10
2023-02-17T03:36:07.976Z,121.93
2023-02-17T03:38:36.157Z,123.23
2023-02-17T03:41:04.224Z,120.07
2023-02-17T03:43:32.225Z,120.23
2023-02-17T03:46:00.216Z,117.87
2023-02-17T03:48:28.300Z,132.33
2023-02-17T03:50:56.264Z,118.40
2023-02-17T03:53:25.613Z,132.90
2023-02-17T03:55:53.526Z,121.50
2023-02-17T03:58:21.524Z,122.20
2023-02-17T04:00:49.460Z,115.20
2023-02-17T04:03:17.447Z,109.57
2023-02-17T04:05:45.912Z,124.20
2023-02-17T04:08:13.889Z,126.33
2023-02-17T04:10:45.066Z,135.13
2023-02-17T04:13:13.076Z,127.37
2023-02-17T04:15:41.097Z,127.93
2023-02-17T04:18:09.079Z,120.90
2023-02-17T04:20:37.021Z,124.90
2023-02-17T04:23:05.079Z,126.77
2023-02-17T04:25:34.954Z,133.37
2023-02-17T04:28:04.691Z,129.07
2023-02-17T04:30:32.974Z,126.13
2023-02-17T04:33:01.547Z,131.17
2023-02-17T04:35:29.631Z,133.60
2023-02-17T04:37:57.607Z,129.30
2023-02-17T04:40:25.623Z,130.00
2023-02-17T04:42:53.685Z,121.17
2023-02-17T04:45:23.347Z,122.30
2023-02-17T04:47:51.476Z,125.53
2023-02-17T04:50:21.024Z,127.67
2023-02-17T04:52:49.287Z,128.80
2023-02-17T04:55:17.315Z,130.87
2023-02-17T04:57:45.407Z,120.33
2023-02-17T05:00:14.305Z,98.37
2023-02-17T05:02:43.980Z,116.97
2023-02-17T05:05:15.119Z,92.40
2023-02-17T05:07:44.252Z,116.23
2023-02-17T05:10:12.351Z,118.63
2023-02-17T05:12:40.957Z,117.53
2023-02-17T05:15:09.977Z,107.00
2023-02-17T05:17:38.324Z,116.97
2023-02-17T05:20:09.876Z,110.70
2023-02-17T05:22:38.041Z,117.97
2023-02-17T05:25:07.001Z,116.30
2023-02-17T05:27:35.265Z,124.90
2023-02-17T05:30:03.276Z,117.90
2023-02-17T05:32:31.326Z,126.30
2023-02-17T05:34:59.311Z,129.70
2023-02-17T05:37:29.334Z,127.27
2023-02-17T05:39:57.350Z,140.73
2023-02-17T05:42:28.875Z,133.50
2023-02-17T05:44:57.063Z,140.70
2023-02-17T05:47:27.556Z,142.20
2023-02-17T05:49:55.705Z,165.97
2023-02-17T05:52:23.723Z,158.73
2023-02-17T05:54:53.063Z,150.27
2023-02-17T05:57:21.012Z,112.73
2023-02-17T05:59:49.089Z,117.50
2023-02-17T06:02:17.100Z,124.33
2023-02-17T06:04:45.179Z,111.40
2023-02-17T06:07:13.177Z,113.87
2023-02-17T06:09:41.161Z,126.53
2023-02-17T06:12:10.608Z,133.63
2023-02-17T06:14:38.594Z,125.43
2023-02-17T06:17:06.554Z,134.93
2023-02-17T06:19:34.572Z,122.50
2023-02-17T06:22:02.673Z,137.63
2023-02-17T06:24:30.836Z,135.23
2023-02-17T06:26:58.830Z,131.73
2023-02-17T06:29:28.728Z,130.73
2023-02-17T06:31:56.805Z,124.57
2023-02-17T06:34:24.921Z,125.47
2023-02-17T06:36:52.942Z,139.60
2023-02-17T06:39:21.008Z,137.90
2023-02-17T06:41:49.032Z,151.13
2023-02-17T06:44:17.308Z,173.33
2023-02-17T06:46:47.127Z,157.90
2023-02-17T06:49:15.606Z,154.40
2023-02-17T06:51:43.615Z,164.17
2023-02-17T06:54:11.608Z,170.23
2023-02-17T06:56:39.548Z,179.17
2023-02-17T06:59:07.583Z,183.23
2023-02-17T07:01:35.532Z,193.53
2023-02-17T07:04:05.003Z,197.10
2023-02-17T07:06:33.161Z,201.80
2023-02-17T07:09:02.608Z,199.87
2023-02-17T07:11:32.854Z,231.40
2023-02-17T07:14:01.409Z,246.10
2023-02-17T07:16:29.550Z,239.67
2023-02-17T07:18:57.567Z,245.90
2023-02-17T07:21:26.891Z,251.50
2023-02-17T07:23:54.856Z,263.03
2023-02-17T07:26:22.953Z,251.00
2023-02-17T07:28:50.933Z,252.47
2023-02-17T07:31:19.154Z,259.30
2023-02-17T07:33:48.643Z,263.00
2023-02-17T07:36:20.067Z,259.33
2023-02-17T07:38:49.728Z,257.93
2023-02-17T07:41:19.999Z,259.67
2023-02-17T07:43:48.862Z,276.63
2023-02-17T07:46:17.199Z,267.10
2023-02-17T07:48:45.232Z,265.83
2023-02-17T07:51:16.325Z,277.47
2023-02-17T07:53:44.328Z,274.77
2023-02-17T07:56:16.060Z,280.37
2023-02-17T07:58:45.016Z,277.83
2023-02-17T08:01:15.632Z,278.17
2023-02-17T08:03:44.180Z,283.63
2023-02-17T08:06:13.065Z,285.33
2023-02-17T08:08:58.793Z,290.63
2023-02-17T08:11:47.204Z,250.67
2023-02-17T08:14:17.146Z,262.90
2023-02-17T08:16:45.134Z,279.20
2023-02-17T08:19:13.161Z,277.60
2023-02-17T08:21:41.178Z,289.93
2023-02-17T08:24:09.274Z,296.60
2023-02-17T08:26:38.664Z,290.33
2023-02-17T08:29:06.940Z,289.03
2023-02-17T08:31:36.818Z,289.53
2023-02-17T08:34:06.966Z,283.07
2023-02-17T08:36:37.313Z,288.20
2023-02-17T08:39:05.840Z,288.63
2023-02-17T08:41:36.419Z,283.03
2023-02-17T08:44:09.567Z,289.17
2023-02-17T08:46:38.216Z,285.57
2023-02-17T08:49:07.199Z,282.93
2023-02-17T08:51:35.748Z,273.07
2023-02-17T08:54:06.359Z,277.30
2023-02-17T08:56:35.231Z,274.50
2023-02-17T08:59:03.518Z,291.83
2023-02-17T09:01:33.155Z,296.97
2023-02-17T09:04:02.692Z,291.50
2023-02-17T09:06:36.164Z,292.47
2023-02-17T09:09:05.567Z,296.77
2023-02-17T09:11:33.768Z,300.80
2023-02-17T09:14:02.566Z,290.63
2023-02-17T09:16:32.054Z,278.57
2023-02-17T09:19:00.127Z,276.87
2023-02-17T09:21:28.111Z,271.00
2023-02-17T09:23:56.268Z,217.90
2023-02-17T09:26:24.571Z,165.17
2023-02-17T09:28:52.622Z,126.60
2023-02-17T09:31:22.645Z,117.93
2023-02-17T09:33:52.739Z,84.53
2023-02-17T09:36:22.881Z,85.03
2023-02-17T09:38:51.763Z,74.73
2023-02-17T09:41:23.073Z,70.13
2023-02-17T09:43:52.001Z,90.20
2023-02-17T09:46:25.005Z,64.80
2023-02-17T09:48:57.393Z,83.17
2023-02-17T09:51:31.355Z,90.47
2023-02-17T09:54:07.735Z,99.78
2023-02-17T09:56:39.417Z,108.17
2023-02-17T09:59:15.570Z,97.20
2023-02-17T10:01:45.282Z,106.43
2023-02-17T10:04:20.635Z,112.83
2023-02-17T10:06:53.364Z,121.80
2023-02-17T10:09:24.714Z,93.83
2023-02-17T10:11:58.217Z,116.60
2023-02-17T10:14:35.614Z,123.63
2023-02-17T10:17:08.682Z,129.27
2023-02-17T10:19:46.670Z,121.83
2023-02-17T10:22:18.436Z,153.67
2023-02-17T10:24:46.429Z,184.90
2023-02-17T10:27:29.570Z,84.77
2023-02-17T10:30:08.860Z,140.93
2023-02-17T10:32:47.892Z,164.47
2023-02-17T10:35:19.610Z,171.77
2023-02-17T10:37:49.545Z,173.90
2023-02-17T10:40:23.472Z,180.23
2023-02-17T10:42:54.533Z,165.47
2023-02-17T10:45:33.353Z,191.63
2023-02-17T10:48:07.457Z,183.37
2023-02-17T10:50:39.170Z,201.02
2023-02-17T10:53:15.253Z,193.17
2023-02-17T10:55:54.242Z,179.07
2023-02-17T10:58:28.822Z,218.23
2023-02-17T11:00:57.934Z,216.43
2023-02-17T11:03:28.414Z,218.77
2023-02-17T11:06:00.708Z,225.87
2023-02-17T11:08:35.326Z,221.67
2023-02-17T11:11:07.156Z,223.60
2023-02-17T11:13:39.044Z,234.10
2023-02-17T11:16:08.313Z,232.43
2023-02-17T11:18:45.652Z,215.50
2023-02-17T11:21:15.078Z,213.70
2023-02-17T11:23:50.303Z,185.70
2023-02-17T11:26:24.311Z,111.38
2023-02-17T11:28:52.918Z,126.80
2023-02-17T11:31:27.076Z,124.83
2023-02-17T11:33:56.982Z,101.53
2023-02-17T11:36:32.332Z,131.97
2023-02-17T11:39:01.048Z,109.03
2023-02-17T11:41:39.588Z,72.15
2023-02-17T11:44:11.204Z,9.77
2023-02-17T11:46:45.519Z,9.13
2023-02-17T11:49:46.984Z,9.88
2023-02-17T11:52:38.916Z,11.23
2023-02-17T11:55:18.999Z,11.40
2023-02-17T11:58:05.430Z,8.80
2023-02-17T12:00:43.967Z,10.63
2023-02-17T12:03:55.426Z,8.75
2023-02-17T12:06:33.964Z,9.57
2023-02-17T12:09:14.295Z,10.32
2023-02-17T12:11:51.635Z,9.95
2023-02-17T12:14:45.702Z,8.98
2023-02-17T12:17:22.440Z,8.10
2023-02-17T12:19:58.945Z,6.63
2023-02-17T12:22:33.152Z,10.05
2023-02-17T12:25:26.847Z,9.30
2023-02-17T12:28:11.428Z,8.30
2023-02-17T12:30:54.332Z,12.18
2023-02-17T12:33:47.889Z,10.23
2023-02-17T12:36:18.639Z,7.13
2023-02-17T12:38:50.866Z,9.35
2023-02-17T12:41:24.221Z,7.22
2023-02-17T12:43:56.066Z,8.55
2023-02-17T12:46:27.972Z,6.88
2023-02-17T12:49:00.425Z,6.82
2023-02-17T12:51:32.330Z,6.88
2023-02-17T12:54:06.474Z,6.60
2023-02-17T12:56:50.850Z,9.82
2023-02-17T12:59:20.220Z,6.15
2023-02-17T13:01:54.111Z,7.47
2023-02-17T13:04:24.950Z,6.30
2023-02-17T13:06:58.912Z,6.80
2023-02-17T13:09:32.993Z,4.50
2023-02-17T13:12:32.817Z,6.63
2023-02-17T13:15:02.709Z,5.35
2023-02-17T13:17:33.324Z,6.32
2023-02-17T13:20:18.972Z,6.05
2023-02-17T13:22:48.981Z,4.43
2023-02-17T13:25:30.389Z,5.80
2023-02-17T13:28:01.319Z,6.93
2023-02-17T13:30:38.961Z,5.22
2023-02-17T13:33:17.020Z,4.80
2023-02-17T13:35:45.085Z,5.70
2023-02-17T13:38:13.109Z,4.72
2023-02-17T13:40:41.929Z,5.63
2023-02-17T13:43:16.411Z,6.78
2023-02-17T13:45:48.121Z,6.35
2023-02-17T13:48:25.530Z,5.40
2023-02-17T13:50:55.525Z,4.47
2023-02-17T13:53:27.616Z,3.72
2023-02-17T13:55:58.405Z,3.83
2023-02-17T13:58:29.747Z,5.05
2023-02-17T14:00:58.993Z,8.43
2023-02-17T14:03:28.607Z,6.18
2023-02-17T14:05:58.847Z,6.43
2023-02-17T14:08:35.844Z,5.03
2023-02-17T14:11:09.968Z,4.50
2023-02-17T14:13:42.433Z,5.75
2023-02-17T14:16:29.077Z,6.25
2023-02-17T14:19:05.376Z,3.78
2023-02-17T14:21:33.858Z,4.65
2023-02-17T14:24:01.984Z,4.80
2023-02-17T14:26:32.569Z,6.38
2023-02-17T14:29:04.980Z,5.63
2023-02-17T14:31:40.209Z,6.97
2023-02-17T14:34:10.514Z,6.10
2023-02-17T14:36:43.345Z,5.97
2023-02-17T14:39:16.002Z,5.03
2023-02-17T14:41:44.547Z,6.05
2023-02-17T14:44:13.979Z,4.28
2023-02-17T14:46:42.031Z,5.72
2023-02-17T14:49:10.001Z,7.82
2023-02-17T14:51:39.041Z,4.35
2023-02-17T14:54:15.425Z,4.85
2023-02-17T14:56:47.591Z,5.55
2023-02-17T14:59:16.965Z,6.30
2023-02-17T15:01:45.019Z,5.50
2023-02-17T15:04:13.125Z,6.35
2023-02-17T15:06:43.566Z,6.28
2023-02-17T15:09:14.507Z,4.80
2023-02-17T15:11:45.765Z,7.38
2023-02-17T15:14:16.585Z,6.68
2023-02-17T15:16:45.010Z,4.65
2023-02-17T15:19:14.326Z,7.38
2023-02-17T15:21:46.429Z,6.15
2023-02-17T15:24:17.705Z,7.85
2023-02-17T15:26:45.795Z,7.28
2023-02-17T15:29:19.078Z,8.02
2023-02-17T15:31:47.562Z,7.90
2023-02-17T15:34:19.156Z,8.45
2023-02-17T15:36:47.352Z,6.82
2023-02-17T15:39:17.858Z,10.60
2023-02-17T15:41:47.234Z,6.10
2023-02-17T15:44:19.830Z,7.45
2023-02-17T15:46:50.898Z,7.10
2023-02-17T15:49:19.065Z,7.53
2023-02-17T15:51:47.003Z,8.88
2023-02-17T15:54:19.057Z,8.30
2023-02-17T15:56:50.133Z,7.63
2023-02-17T15:59:23.331Z,7.80
2023-02-17T16:01:51.773Z,7.63
2023-02-17T16:04:20.134Z,6.68
2023-02-17T16:06:48.109Z,7.95
2023-02-17T16:09:16.897Z,6.82
2023-02-17T16:11:49.085Z,6.75
2023-02-17T16:14:25.458Z,6.18
2023-02-17T16:16:53.718Z,7.53
2023-02-17T16:19:21.879Z,9.60
2023-02-17T16:21:51.043Z,7.38
2023-02-17T16:24:19.055Z,10.90
2023-02-17T16:26:47.329Z,12.60
2023-02-17T16:29:17.182Z,7.53
2023-02-17T16:31:47.112Z,7.80
2023-02-17T16:34:16.608Z,8.77
2023-02-17T16:36:44.940Z,7.68
2023-02-17T16:39:15.212Z,6.20
2023-02-17T16:41:43.453Z,6.67
2023-02-17T16:44:14.168Z,5.10
2023-02-17T16:46:50.000Z,7.32
2023-02-17T16:49:21.631Z,6.00
2023-02-17T16:51:51.087Z,6.13
2023-02-17T16:54:19.682Z,6.80
2023-02-17T16:56:50.498Z,5.57
2023-02-17T16:59:21.214Z,5.65
2023-02-17T17:01:53.119Z,4.50
2023-02-17T17:04:21.999Z,7.80
2023-02-17T17:06:52.865Z,6.72
2023-02-17T17:09:23.171Z,4.40
2023-02-17T17:11:51.805Z,4.03
2023-02-17T17:14:21.618Z,4.32
2023-02-17T17:16:55.809Z,4.45
2023-02-17T17:19:24.001Z,9.60
2023-02-17T17:21:52.016Z,3.53
2023-02-17T17:24:20.137Z,4.53
2023-02-17T17:26:50.160Z,2.95
2023-02-17T17:29:19.425Z,4.57
2023-02-17T17:31:48.027Z,3.95
2023-02-17T17:34:17.429Z,3.00
2023-02-17T17:36:48.031Z,4.03
2023-02-17T17:39:18.860Z,3.75
2023-02-17T17:41:47.284Z,4.18
2023-02-17T17:44:15.535Z,4.03
2023-02-17T17:46:43.625Z,4.03
2023-02-17T17:49:15.626Z,3.55
2023-02-17T17:51:44.960Z,3.65
2023-02-17T17:54:13.088Z,2.97
2023-02-17T17:56:43.225Z,4.60
2023-02-17T17:59:12.526Z,3.30
2023-02-17T18:01:40.567Z,4.13
2023-02-17T18:04:09.376Z,2.58
2023-02-17T18:06:42.354Z,3.23
2023-02-17T18:09:30.243Z,3.25
2023-02-17T18:12:02.633Z,4.45
2023-02-17T18:14:31.874Z,1.58
2023-02-17T18:17:00.600Z,2.28
2023-02-17T18:19:29.575Z,2.78
2023-02-17T18:21:59.760Z,2.28
2023-02-17T18:24:29.077Z,2.35
2023-02-17T18:26:57.091Z,3.25
2023-02-17T18:29:25.169Z,4.53
2023-02-17T18:31:53.262Z,14.63
2023-02-17T18:34:21.407Z,1.92
2023-02-17T18:36:49.431Z,4.17
2023-02-17T18:39:17.408Z,3.03
2023-02-17T18:41:46.781Z,1.85
2023-02-17T18:44:14.804Z,1.60
2023-02-17T18:46:42.781Z,4.23
2023-02-17T18:49:10.791Z,2.07
2023-02-17T18:51:38.740Z,1.53
2023-02-17T18:54:10.734Z,3.63
2023-02-17T18:56:39.096Z,4.23
2023-02-17T18:59:08.446Z,2.20
2023-02-17T19:01:39.112Z,1.97
2023-02-17T19:04:07.145Z,1.53
2023-02-17T19:06:35.468Z,2.07
2023-02-17T19:09:04.744Z,0.87
2023-02-17T19:11:33.727Z,4.70
2023-02-17T19:14:02.367Z,2.07
2023-02-17T19:16:32.916Z,1.83
2023-02-17T19:19:01.467Z,0.98
2023-02-17T19:21:29.454Z,1.03
2023-02-17T19:23:57.677Z,2.07
2023-02-17T19:26:25.660Z,0.67
2023-02-17T19:28:53.612Z,0.97
2023-02-17T19:31:21.854Z,2.13
2023-02-17T19:33:51.204Z,1.77
2023-02-17T19:36:20.941Z,4.70
2023-02-17T19:38:49.948Z,4.70
2023-02-17T19:41:18.969Z,23.90
2023-02-17T19:43:47.142Z,3.00
2023-02-17T19:46:16.270Z,19.07
2023-02-17T19:48:45.493Z,10.10
2023-02-17T19:51:15.291Z,4.30
2023-02-17T19:53:45.984Z,3.50
2023-02-17T19:56:15.599Z,2.83
2023-02-17T19:58:44.418Z,9.07
2023-02-17T20:01:14.378Z,20.73
2023-02-17T20:03:42.706Z,20.97
2023-02-17T20:06:13.259Z,44.17
2023-02-17T20:08:42.703Z,29.43
2023-02-17T20:11:11.887Z,7.83
2023-02-17T20:13:45.975Z,5.10
2023-02-17T20:16:16.313Z,4.27
2023-02-17T20:18:46.764Z,27.37
2023-02-17T20:21:16.870Z,75.80
2023-02-17T20:23:46.809Z,152.50
2023-02-17T20:26:18.130Z,174.97
2023-02-17T20:28:46.260Z,190.73
2023-02-17T20:31:14.333Z,260.23
2023-02-17T20:33:42.601Z,103.67
2023-02-17T20:36:11.723Z,218.70
2023-02-17T20:38:39.967Z,39.33
2023-02-17T20:41:10.810Z,40.93
2023-02-17T20:43:38.887Z,17.43
2023-02-17T20:46:07.681Z,101.07
2023-02-17T20:48:35.960Z,163.87
2023-02-17T20:51:05.666Z,35.80
2023-02-17T20:53:33.853Z,150.20
2023-02-17T20:56:01.948Z,64.13
2023-02-17T20:58:31.272Z,24.77
2023-02-17T21:00:59.273Z,232.93
2023-02-17T21:03:27.256Z,228.90
2023-02-17T21:05:55.266Z,209.00
2023-02-17T21:08:23.253Z,189.93
2023-02-17T21:10:51.179Z,178.90
2023-02-17T21:13:19.717Z,205.27
2023-02-17T21:15:49.219Z,200.43
2023-02-17T21:18:17.615Z,185.17
2023-02-17T21:20:45.661Z,156.63
2023-02-17T21:23:13.628Z,123.53
2023-02-17T21:25:41.665Z,120.67
2023-02-17T21:28:09.675Z,135.67
2023-02-17T21:30:37.649Z,129.87
2023-02-17T21:33:07.173Z,101.33
2023-02-17T21:35:35.124Z,103.37
2023-02-17T21:38:03.123Z,135.03
2023-02-17T21:40:31.462Z,91.80
2023-02-17T21:43:16.973Z,99.83
2023-02-17T21:45:45.680Z,114.57
2023-02-17T21:48:15.216Z,122.63
2023-02-17T21:50:43.451Z,59.20
2023-02-17T21:53:11.407Z,74.77
2023-02-17T21:55:39.326Z,121.00
2023-02-17T21:58:07.304Z,107.33
2023-02-17T22:00:35.375Z,26.30
2023-02-17T22:03:03.462Z,103.50
2023-02-17T22:05:33.288Z,13.53
2023-02-17T22:08:01.268Z,4.70
2023-02-17T22:10:29.210Z,10.43
2023-02-17T22:12:57.649Z,9.53
2023-02-17T22:15:25.608Z,4.10
2023-02-17T22:17:53.535Z,5.80
2023-02-17T22:20:21.893Z,5.97
2023-02-17T22:22:52.187Z,21.07
2023-02-17T22:25:20.210Z,6.07
2023-02-17T22:27:49.090Z,9.60
2023-02-17T22:30:17.346Z,14.80
2023-02-17T22:32:45.550Z,18.10
2023-02-17T22:35:15.033Z,3.10
2023-02-17T22:37:42.978Z,4.40
2023-02-17T22:40:12.736Z,3.57
2023-02-17T22:42:40.703Z,5.67
2023-02-17T22:45:10.406Z,4.47
2023-02-17T22:47:39.734Z,6.83
2023-02-17T22:50:08.105Z,5.53
2023-02-17T22:52:36.175Z,4.97
2023-02-17T22:55:04.208Z,4.90
2023-02-17T22:57:33.525Z,2.63
2023-02-17T23:00:01.527Z,6.23
2023-02-17T23:02:29.522Z,2.90
2023-02-17T23:04:57.455Z,5.27
2023-02-17T23:07:25.414Z,5.07
2023-02-17T23:09:53.389Z,7.60
2023-02-17T23:12:21.462Z,2.83
2023-02-17T23:14:50.812Z,4.67
2023-02-17T23:17:18.750Z,2.93
2023-02-17T23:19:47.596Z,2.47
2023-02-17T23:22:17.378Z,3.80
2023-02-17T23:24:45.599Z,6.83
2023-02-17T23:27:14.119Z,5.97
2023-02-17T23:29:42.956Z,4.67
2023-02-17T23:32:12.281Z,5.33
2023-02-17T23:34:40.368Z,12.40
2023-02-17T23:37:08.338Z,5.60
2023-02-17T23:39:38.453Z,8.03
2023-02-17T23:42:06.792Z,3.80
2023-02-17T23:44:34.779Z,3.53
2023-02-17T23:47:03.645Z,4.87
2023-02-17T23:49:33.001Z,9.83
2023-02-17T23:52:01.568Z,6.70
2023-02-17T23:54:29.614Z,3.47
2023-02-17T23:56:57.598Z,5.10
2023-02-17T23:59:25.580Z,9.43
